Logo AVAMET
Benvolgut visitant, si us plau, ingressa Recuperar contrasenya

Xirivella

Dades diàries. Acumulats / Últims 30 dies disponibles

Data Temperatura (°C) Humitat rel. (%) Pressió rel. (hPa) Vent (km/h) Precipitació
Mínima Mitjana Màxima Amplitud
tèrmica
Mínima Mitjana Màxima Mínima Mitjana Màxima Predom. Mitjana Ràfega
màxima
Total
(mm)
Índex-n
Mínima Mitjana Màxima Mínima Mitjana Màxima n
0 a 1
P0 max
mm 5'
Dades mensuals acumulades fins l'últim dia disponible
04/2019 8,3 11,4 14,2 15,3 15,0 19,9 29,7 21,4 23 64 95 997 1.012 1.026   5,0 61,0 60,4
Dades anuals acumulades fins l'últim dia disponible
2019 1,3 8,3 15,9 13,0 12,3 18,5 29,7 28,4 0 60 95 992 1.019 1.035   3,4 61,0 76,2
Últims 30 dies disponibles
30-04-2019 12,4     16,3     19,8 7,4 66 78 89 1.015 1.016 1.018 ENE 3,4 27,8 0,0
29-04-2019 11,7     15,5     18,4 6,7 68 78 87 1.017 1.019 1.020 ENE 2,4 22,2 0,0
28-04-2019 11,9     16,0     20,8 8,9 53 67 81 1.019 1.021 1.024 NE 2,9 25,9 0,0
27-04-2019 10,9     16,6     21,3 10,4 39 60 81 1.022 1.024 1.026 ENE 2,4 22,2 0,0
26-04-2019 11,6     16,6     22,9 11,3 34 52 69 1.017 1.021 1.024 SE 3,5 31,4 0,0
25-04-2019 13,8     17,1     21,4 7,6 40 58 75 1.008 1.012 1.017 SO 6,4 42,5 0,0
24-04-2019 10,2     15,9     21,8 11,6 41 55 69 1.003 1.008 1.010 SSO 4,4 27,8 0,0
23-04-2019 10,6     14,7     21,5 10,9 47 69 91 997 999 1.003 SO 3,4 42,5 1,0 0,20
22-04-2019 12,4     14,2     16,6 4,2 71 79 87 999 1.001 1.006 SO 0,3 16,6 2,2
21-04-2019 12,3     14,3     15,7 3,4 60 75 89 1.006 1.009 1.016 NNE 12,3 48,1 2,2 0,20
20-04-2019 14,2     15,4     16,4 2,2 59 70 80 1.014 1.016 1.019 NNE 17,6 61,0 2,6
19-04-2019 12,5     14,0     15,8 3,3 73 84 95 1.013 1.016 1.018 NE 12,5 57,4 16,6
18-04-2019 11,7     14,0     15,0 3,3 76 85 94 1.010 1.013 1.018 NNE 9,8 50,0 25,2 0,51 3,50
17-04-2019 13,2     15,3     17,6 4,4 65 74 83 1.015 1.017 1.020 NE 4,4 29,6 0,0
16-04-2019 12,9     15,6     18,3 5,4 60 72 83 1.015 1.018 1.020 ENE 3,9 22,2 0,0
15-04-2019 13,8     15,8     17,9 4,1 64 75 86 1.014 1.015 1.017 NE 6,1 31,4 0,0
14-04-2019 10,9     20,1     29,7 18,8 27 51 74 1.010 1.013 1.017 SO 3,9 31,4 0,0
13-04-2019 9,7     15,5     22,1 12,4 32 53 74 1.015 1.016 1.018 E 1,4 22,2 0,0
12-04-2019 9,9     15,2     20,8 10,9 35 52 68 1.014 1.015 1.016 ESE 2,2 27,8 0,0
11-04-2019 10,0     15,5     22,7 12,7 31 48 65 1.012 1.014 1.016 OSO 2,9 29,6 0,0
10-04-2019 10,6     15,1     20,4 9,8 31 48 65 1.009 1.011 1.013 O 3,8 35,1 0,2
09-04-2019 12,7     15,6     20,6 7,9 36 49 62 1.009 1.011 1.012 OSO 8,1 40,7 0,0
08-04-2019 13,2     17,7     23,8 10,6 36 55 73 1.009 1.011 1.014 SO 5,0 33,3 0,0
07-04-2019 9,8     15,1     20,0 10,2 31 51 71 1.005 1.009 1.013 OSO 6,2 35,1 0,0
06-04-2019 9,1     12,1     16,3 7,2 45 58 71 1.000 1.003 1.006 SO 6,7 38,9 1,0
05-04-2019 8,3     11,8     18,8 10,5 41 64 87 998 1.001 1.003 OSO 1,9 31,4 3,6 0,07 0,40
04-04-2019 9,9     13,2     18,2 8,3 23 52 81 1.002 1.003 1.005 S 3,2 35,1 0,2
03-04-2019 10,3     16,2     23,7 13,4 30 59 88 998 1.004 1.012 SO 5,6 37,0 0,2
02-04-2019 9,7     14,1     20,7 11,0 51 70 89 1.012 1.013 1.016 SSE 0,8 18,5 2,6
01-04-2019 11,4     13,4     16,8 5,4 56 74 91 1.013 1.015 1.016 NNE 2,0 22,2 2,8 0,20
Últims 13 mesos disponibles
04/2019 8,3 11,4 14,2 15,3 15,0 19,9 29,7 21,4 48 64 85 999 1.012 1.024 SO 5,0 61,0 60,4
03/2019 6,2 9,1 15,9 14,3 12,7 19,7 29,3 23,1 45 58 82 1.009 1.022 1.029 ENE 3,1 44,4 15,4
02/2019 2,9 6,7 10,8 11,8 12,4 17,7 25,9 23,0 39 61 77 994 1.024 1.033 OSO 2,7 61,0 0,2
01/2019 1,3 5,8 12,0 10,6 12,3 16,6 20,7 19,4 43 58 74 1.002 1.019 1.030 OSO 2,7 48,1 0,2
12/2018 3,9 8,4 12,5 12,6 14,6 18,4 23,1 19,2 52 67 81 1.007 1.024 1.030 SO 1,7 38,9 8,4
11/2018 5,9 11,1 15,0 14,4 14,6 18,5 24,3 18,4 50 71 92 1.001 1.015 1.023 SO 2,6 42,5 87,8
10/2018 7,4 14,6 18,2 18,4 13,6 22,6 27,5 20,1 48 70 88 999 1.013 1.025 NE 2,3 48,1 162,2
09/2018 15,5 20,5 23,9 24,1 24,3 27,7 31,8 16,3 55 73 84 1.011 1.018 1.027 2,6 46,3 140,0
08/2018 20,1 23,3 25,8 27,0 26,7 30,9 36,8 16,7 50 68 77 1.011 1.015 1.020 4,0 50,0 14,6
07/2018 21,4 22,8 24,6 26,6 27,4 30,3 35,8 14,4 41 68 75 1.008 1.013 1.018 4,5 43,4 0,0
06/2018 14,6 19,5 23,2 23,5 22,8 27,3 31,4 16,8 47 64 77 1.008 1.014 1.019 4,1 35,4 105,2
05/2018 9,3 15,0 18,4 19,0 17,4 23,6 28,8 19,5 42 65 80 1.008 1.014 1.016 3,9 42,6 25,2
04/2018 9,4 12,3 16,3 16,4 13,8 20,4 26,2 16,8 46 62 81 994 1.013 1.024 5,4 51,8 12,8
Tots els anys disponibles
2018 1,7 14,4 25,8 18,3 8,7 22,6 36,8 35,1 40 66 92 992 1.015 1.034 SO 3,6 53,7 654,5
2017 0,6 15,0 25,8 19,2 8,4 23,4 36,3 35,7 38 65 92 1.003 1.017 1.032 5,2 58,0 231,4
2016 2,8 14,5 25,4 18,6 11,4 22,6 35,8 33,0 36 65 88 994 1.017 1.036 70,0 479,8
2015 0,8 14,2 20,4 18,5 22,8 22,8 41,8 41,0 57 65 72 1.015 1.019 1.030 69,0 346,8
2014 7,5 18,3 25,1 22,2 15,1 26,1 40,9 33,4 38 64 84 1.000 1.015 1.027 60,0 142,2
2013 2,6 14,6 18,3 18,6 23,1 22,9 35,8 33,2 5,3 59,2 303,8
2012 455,6
2011 -1,6 14,2 24,4 18,0 8,3 22,3 36,8 38,4 4,2 59,2 439,7
2010 0,2 13,2 25,4 17,2 6,3 21,4 42,7 42,5 4,3 70,3 422,2
2009 -1,1 14,3 24,9 18,3 6,5 22,7 40,7 41,8 4,5 66,6 579,5
2008 2,2 13,8 17,8 22,3 38,1 35,9 4,3 68,0 577,4
2007 1,0 13,7 17,8 22,5 39,0 38,0 4,8 70,0 826,1
Temperatura (°C)
Humitat relativa (%)
Velocitat del vent i ràfega màxima (km/h)
Direcció del vent (°)
Pressió (hPa)
Precipitació (mm)
Nota sobre les dades: s'avisa a l'usuari de la provisionalitat i no oficialitat d'aquestes dades
Logo AVAMET blanc
Web allotjada a Sollutia
Llicència de Creative CommonsLa web d'AVAMET i els seus continguts estan subjectes a una llicència de
Reconeixement - No Comercial - Compartir igual
Properes estacions: Altea - Club Nàutic d'Altea (Soci),    - - - - -      Últimes estacions: Llíria - Bodegas del Campo (Soci), La Pobla Tornesa (Soci), Quartell (Soci), Alzira - Est (Soci/Inforatge), San Miguel de las Salinas (MeteOrihuela), Segorbe (Inforatge), Alcalà de Xivert - Alcossebre (Inforatge), Moixent - la Foia (Soci), Callosa d'en Sarrià - Centre (Soci) - - -